sensor_id;sensor_type;location;lat;lon;timestamp;temperature;humidity
3980;DHT22;2004;52.452;13.120;2023-06-26T00:00:00;19.50;99.90
3980;DHT22;2004;52.452;13.120;2023-06-26T00:07:51;19.50;99.90
3980;DHT22;2004;52.452;13.120;2023-06-26T00:15:42;19.40;99.90
3980;DHT22;2004;52.452;13.120;2023-06-26T00:23:32;19.40;99.90
3980;DHT22;2004;52.452;13.120;2023-06-26T00:31:28;19.30;99.90
3980;DHT22;2004;52.452;13.120;2023-06-26T00:39:20;19.30;99.90
3980;DHT22;2004;52.452;13.120;2023-06-26T00:47:14;19.20;99.90
3980;DHT22;2004;52.452;13.120;2023-06-26T00:55:06;19.20;99.90
3980;DHT22;2004;52.452;13.120;2023-06-26T01:02:57;19.10;99.90
3980;DHT22;2004;52.452;13.120;2023-06-26T01:10:45;19.10;99.90
3980;DHT22;2004;52.452;13.120;2023-06-26T01:18:38;19.00;99.90
3980;DHT22;2004;52.452;13.120;2023-06-26T01:26:33;19.00;99.90
3980;DHT22;2004;52.452;13.120;2023-06-26T01:34:26;18.90;99.90
3980;DHT22;2004;52.452;13.120;2023-06-26T01:42:17;18.90;99.90
3980;DHT22;2004;52.452;13.120;2023-06-26T01:50:18;18.80;99.90
3980;DHT22;2004;52.452;13.120;2023-06-26T01:58:10;18.70;99.90
3980;DHT22;2004;52.452;13.120;2023-06-26T02:06:01;18.70;99.90
3980;DHT22;2004;52.452;13.120;2023-06-26T02:13:52;18.60;99.90
3980;DHT22;2004;52.452;13.120;2023-06-26T02:21:44;18.50;99.90
3980;DHT22;2004;52.452;13.120;2023-06-26T02:29:34;18.50;99.90
3980;DHT22;2004;52.452;13.120;2023-06-26T02:37:25;18.40;99.90
3980;DHT22;2004;52.452;13.120;2023-06-26T02:45:16;18.30;99.90
3980;DHT22;2004;52.452;13.120;2023-06-26T02:53:06;18.30;99.90
3980;DHT22;2004;52.452;13.120;2023-06-26T03:00:57;18.30;99.90
3980;DHT22;2004;52.452;13.120;2023-06-26T03:08:47;18.30;99.90
3980;DHT22;2004;52.452;13.120;2023-06-26T03:16:38;18.30;99.90
3980;DHT22;2004;52.452;13.120;2023-06-26T03:24:30;18.40;99.90
3980;DHT22;2004;52.452;13.120;2023-06-26T03:32:22;18.40;99.90
3980;DHT22;2004;52.452;13.120;2023-06-26T03:40:13;18.40;99.90
3980;DHT22;2004;52.452;13.120;2023-06-26T03:48:04;18.40;99.90
3980;DHT22;2004;52.452;13.120;2023-06-26T03:55:56;18.40;99.90
3980;DHT22;2004;52.452;13.120;2023-06-26T04:03:47;18.40;99.90
3980;DHT22;2004;52.452;13.120;2023-06-26T04:11:37;18.50;99.90
3980;DHT22;2004;52.452;13.120;2023-06-26T04:19:30;18.60;99.90
3980;DHT22;2004;52.452;13.120;2023-06-26T04:27:20;18.70;99.90
3980;DHT22;2004;52.452;13.120;2023-06-26T04:35:11;19.10;99.90
3980;DHT22;2004;52.452;13.120;2023-06-26T04:43:02;19.50;99.90
3980;DHT22;2004;52.452;13.120;2023-06-26T04:50:54;19.60;99.90
3980;DHT22;2004;52.452;13.120;2023-06-26T04:58:45;19.60;99.90
3980;DHT22;2004;52.452;13.120;2023-06-26T05:06:35;19.60;99.90
3980;DHT22;2004;52.452;13.120;2023-06-26T05:14:26;19.50;99.90
3980;DHT22;2004;52.452;13.120;2023-06-26T05:22:17;19.50;99.90
3980;DHT22;2004;52.452;13.120;2023-06-26T05:30:08;19.70;99.90
3980;DHT22;2004;52.452;13.120;2023-06-26T05:37:59;20.20;99.90
3980;DHT22;2004;52.452;13.120;2023-06-26T05:45:50;20.60;99.90
3980;DHT22;2004;52.452;13.120;2023-06-26T05:53:42;21.00;99.90
3980;DHT22;2004;52.452;13.120;2023-06-26T06:01:35;21.50;99.90
3980;DHT22;2004;52.452;13.120;2023-06-26T06:09:28;21.80;99.90
3980;DHT22;2004;52.452;13.120;2023-06-26T06:17:20;22.00;99.90
3980;DHT22;2004;52.452;13.120;2023-06-26T06:25:11;22.20;99.90
3980;DHT22;2004;52.452;13.120;2023-06-26T06:33:02;22.40;99.90
3980;DHT22;2004;52.452;13.120;2023-06-26T06:40:53;22.60;99.90
3980;DHT22;2004;52.452;13.120;2023-06-26T06:48:44;22.70;99.90
3980;DHT22;2004;52.452;13.120;2023-06-26T06:56:34;22.80;99.90
3980;DHT22;2004;52.452;13.120;2023-06-26T07:04:25;22.90;99.90
3980;DHT22;2004;52.452;13.120;2023-06-26T07:12:17;23.00;99.90
3980;DHT22;2004;52.452;13.120;2023-06-26T07:20:08;23.00;99.90
3980;DHT22;2004;52.452;13.120;2023-06-26T07:28:01;23.10;99.90
3980;DHT22;2004;52.452;13.120;2023-06-26T07:35:52;23.20;99.90
3980;DHT22;2004;52.452;13.120;2023-06-26T07:43:48;23.40;99.90
3980;DHT22;2004;52.452;13.120;2023-06-26T07:51:38;23.60;99.90
3980;DHT22;2004;52.452;13.120;2023-06-26T07:59:30;23.80;99.90
3980;DHT22;2004;52.452;13.120;2023-06-26T08:07:20;23.90;99.90
3980;DHT22;2004;52.452;13.120;2023-06-26T08:15:12;24.20;99.90
3980;DHT22;2004;52.452;13.120;2023-06-26T08:23:04;24.40;99.90
3980;DHT22;2004;52.452;13.120;2023-06-26T08:30:54;24.60;99.90
3980;DHT22;2004;52.452;13.120;2023-06-26T08:38:45;24.90;99.90
3980;DHT22;2004;52.452;13.120;2023-06-26T08:46:36;25.10;99.10
3980;DHT22;2004;52.452;13.120;2023-06-26T08:54:32;25.20;97.80
3980;DHT22;2004;52.452;13.120;2023-06-26T09:02:24;25.40;95.30
3980;DHT22;2004;52.452;13.120;2023-06-26T09:10:14;25.60;94.80
3980;DHT22;2004;52.452;13.120;2023-06-26T09:18:05;25.70;92.80
3980;DHT22;2004;52.452;13.120;2023-06-26T09:25:57;25.90;90.30
3980;DHT22;2004;52.452;13.120;2023-06-26T09:33:48;26.00;90.60
3980;DHT22;2004;52.452;13.120;2023-06-26T09:41:41;26.30;90.50
3980;DHT22;2004;52.452;13.120;2023-06-26T09:49:33;26.40;89.70
3980;DHT22;2004;52.452;13.120;2023-06-26T09:57:27;26.60;88.70
3980;DHT22;2004;52.452;13.120;2023-06-26T10:05:17;26.80;85.40
3980;DHT22;2004;52.452;13.120;2023-06-26T10:13:20;26.90;85.30
3980;DHT22;2004;52.452;13.120;2023-06-26T10:21:12;27.00;84.80
3980;DHT22;2004;52.452;13.120;2023-06-26T10:29:05;27.20;82.10
3980;DHT22;2004;52.452;13.120;2023-06-26T10:37:01;27.40;81.20
3980;DHT22;2004;52.452;13.120;2023-06-26T10:44:51;27.50;77.20
3980;DHT22;2004;52.452;13.120;2023-06-26T10:52:42;27.70;76.30
3980;DHT22;2004;52.452;13.120;2023-06-26T11:00:33;27.80;76.70
3980;DHT22;2004;52.452;13.120;2023-06-26T11:08:47;27.90;76.20
3980;DHT22;2004;52.452;13.120;2023-06-26T11:16:39;28.20;74.70
3980;DHT22;2004;52.452;13.120;2023-06-26T11:24:32;28.50;72.20
3980;DHT22;2004;52.452;13.120;2023-06-26T11:32:26;29.00;74.50
3980;DHT22;2004;52.452;13.120;2023-06-26T11:40:18;29.30;68.10
3980;DHT22;2004;52.452;13.120;2023-06-26T11:48:10;29.60;65.20
3980;DHT22;2004;52.452;13.120;2023-06-26T11:56:08;29.90;66.70
3980;DHT22;2004;52.452;13.120;2023-06-26T12:04:00;30.20;66.90
3980;DHT22;2004;52.452;13.120;2023-06-26T12:11:53;30.50;64.20
3980;DHT22;2004;52.452;13.120;2023-06-26T12:19:46;30.20;63.90
3980;DHT22;2004;52.452;13.120;2023-06-26T12:27:40;30.40;65.10
3980;DHT22;2004;52.452;13.120;2023-06-26T12:35:33;30.50;65.10
3980;DHT22;2004;52.452;13.120;2023-06-26T12:43:25;30.60;63.20
3980;DHT22;2004;52.452;13.120;2023-06-26T12:51:18;30.80;62.60
3980;DHT22;2004;52.452;13.120;2023-06-26T12:59:09;30.80;62.90
3980;DHT22;2004;52.452;13.120;2023-06-26T13:06:59;30.40;64.80
3980;DHT22;2004;52.452;13.120;2023-06-26T13:14:50;29.90;63.10
3980;DHT22;2004;52.452;13.120;2023-06-26T13:22:40;29.60;66.10
3980;DHT22;2004;52.452;13.120;2023-06-26T13:30:31;29.40;67.20
3980;DHT22;2004;52.452;13.120;2023-06-26T13:38:22;29.30;68.30
3980;DHT22;2004;52.452;13.120;2023-06-26T13:46:16;29.80;65.50
3980;DHT22;2004;52.452;13.120;2023-06-26T13:54:07;29.90;65.80
3980;DHT22;2004;52.452;13.120;2023-06-26T14:02:00;29.50;64.10
3980;DHT22;2004;52.452;13.120;2023-06-26T14:09:50;28.90;67.70
3980;DHT22;2004;52.452;13.120;2023-06-26T14:17:41;27.10;88.70
3980;DHT22;2004;52.452;13.120;2023-06-26T14:25:31;25.30;97.80
3980;DHT22;2004;52.452;13.120;2023-06-26T14:33:22;23.90;99.90
3980;DHT22;2004;52.452;13.120;2023-06-26T14:41:13;22.60;99.90
3980;DHT22;2004;52.452;13.120;2023-06-26T14:49:03;21.80;99.90
3980;DHT22;2004;52.452;13.120;2023-06-26T14:56:54;21.20;99.90
3980;DHT22;2004;52.452;13.120;2023-06-26T15:04:44;20.70;99.90
3980;DHT22;2004;52.452;13.120;2023-06-26T15:12:36;20.60;99.90
3980;DHT22;2004;52.452;13.120;2023-06-26T15:20:26;20.60;99.90
3980;DHT22;2004;52.452;13.120;2023-06-26T15:28:19;20.70;99.90
3980;DHT22;2004;52.452;13.120;2023-06-26T15:36:10;20.90;99.90
3980;DHT22;2004;52.452;13.120;2023-06-26T15:44:01;20.90;99.90
3980;DHT22;2004;52.452;13.120;2023-06-26T15:51:52;20.90;99.90
3980;DHT22;2004;52.452;13.120;2023-06-26T15:59:43;21.00;99.90
3980;DHT22;2004;52.452;13.120;2023-06-26T16:07:33;21.10;99.90
3980;DHT22;2004;52.452;13.120;2023-06-26T16:15:24;21.00;99.90
3980;DHT22;2004;52.452;13.120;2023-06-26T16:23:15;21.00;99.90
3980;DHT22;2004;52.452;13.120;2023-06-26T16:31:05;21.00;99.90
3980;DHT22;2004;52.452;13.120;2023-06-26T16:38:56;20.90;99.90
3980;DHT22;2004;52.452;13.120;2023-06-26T16:46:46;20.80;99.90
3980;DHT22;2004;52.452;13.120;2023-06-26T16:54:37;20.90;99.90
3980;DHT22;2004;52.452;13.120;2023-06-26T17:02:28;21.10;99.90
3980;DHT22;2004;52.452;13.120;2023-06-26T17:10:20;21.00;99.90
3980;DHT22;2004;52.452;13.120;2023-06-26T17:18:11;21.10;99.90
3980;DHT22;2004;52.452;13.120;2023-06-26T17:26:03;21.10;99.90
3980;DHT22;2004;52.452;13.120;2023-06-26T17:33:53;21.10;99.90
3980;DHT22;2004;52.452;13.120;2023-06-26T17:41:44;21.10;99.90
3980;DHT22;2004;52.452;13.120;2023-06-26T17:49:35;21.10;99.90
3980;DHT22;2004;52.452;13.120;2023-06-26T17:57:25;21.00;99.90
3980;DHT22;2004;52.452;13.120;2023-06-26T18:05:17;20.90;99.90
3980;DHT22;2004;52.452;13.120;2023-06-26T18:13:07;20.90;99.90
3980;DHT22;2004;52.452;13.120;2023-06-26T18:20:58;20.90;99.90
3980;DHT22;2004;52.452;13.120;2023-06-26T18:28:49;20.80;99.90
3980;DHT22;2004;52.452;13.120;2023-06-26T18:36:43;20.70;99.90
3980;DHT22;2004;52.452;13.120;2023-06-26T18:44:33;20.60;99.90
3980;DHT22;2004;52.452;13.120;2023-06-26T18:52:27;20.40;99.90
3980;DHT22;2004;52.452;13.120;2023-06-26T19:00:17;20.30;99.90
3980;DHT22;2004;52.452;13.120;2023-06-26T19:08:08;20.10;99.90
3980;DHT22;2004;52.452;13.120;2023-06-26T19:15:59;20.00;99.90
3980;DHT22;2004;52.452;13.120;2023-06-26T19:23:50;19.90;99.90
3980;DHT22;2004;52.452;13.120;2023-06-26T19:31:41;19.70;99.90
3980;DHT22;2004;52.452;13.120;2023-06-26T19:39:31;19.60;99.90
3980;DHT22;2004;52.452;13.120;2023-06-26T19:47:22;19.50;99.90
3980;DHT22;2004;52.452;13.120;2023-06-26T19:55:13;19.50;99.90
3980;DHT22;2004;52.452;13.120;2023-06-26T20:03:03;19.40;99.90
3980;DHT22;2004;52.452;13.120;2023-06-26T20:10:54;19.30;99.90
3980;DHT22;2004;52.452;13.120;2023-06-26T20:18:46;19.30;99.90
3980;DHT22;2004;52.452;13.120;2023-06-26T20:26:55;19.20;99.90
3980;DHT22;2004;52.452;13.120;2023-06-26T20:35:05;19.20;99.90
3980;DHT22;2004;52.452;13.120;2023-06-26T20:43:21;19.10;99.90
3980;DHT22;2004;52.452;13.120;2023-06-26T20:51:13;19.10;99.90
3980;DHT22;2004;52.452;13.120;2023-06-26T20:59:04;19.00;99.90
3980;DHT22;2004;52.452;13.120;2023-06-26T21:06:57;18.90;99.90
3980;DHT22;2004;52.452;13.120;2023-06-26T21:14:49;18.90;99.90
3980;DHT22;2004;52.452;13.120;2023-06-26T21:22:40;18.80;99.90
3980;DHT22;2004;52.452;13.120;2023-06-26T21:30:30;18.70;98.00
3980;DHT22;2004;52.452;13.120;2023-06-26T21:38:21;18.70;98.00
3980;DHT22;2004;52.452;13.120;2023-06-26T21:46:12;18.50;96.70
3980;DHT22;2004;52.452;13.120;2023-06-26T21:54:03;18.50;98.50
3980;DHT22;2004;52.452;13.120;2023-06-26T22:01:54;18.40;99.90
3980;DHT22;2004;52.452;13.120;2023-06-26T22:09:44;18.20;99.90
3980;DHT22;2004;52.452;13.120;2023-06-26T22:17:51;18.20;99.90
3980;DHT22;2004;52.452;13.120;2023-06-26T22:25:43;18.10;99.90
3980;DHT22;2004;52.452;13.120;2023-06-26T22:33:34;18.00;99.90
3980;DHT22;2004;52.452;13.120;2023-06-26T22:41:24;17.90;99.90
3980;DHT22;2004;52.452;13.120;2023-06-26T22:49:15;17.80;99.90
3980;DHT22;2004;52.452;13.120;2023-06-26T22:57:08;17.80;99.90
3980;DHT22;2004;52.452;13.120;2023-06-26T23:04:59;17.70;99.90
3980;DHT22;2004;52.452;13.120;2023-06-26T23:12:50;17.60;99.90
3980;DHT22;2004;52.452;13.120;2023-06-26T23:20:40;17.50;99.90
3980;DHT22;2004;52.452;13.120;2023-06-26T23:28:32;17.50;99.90
3980;DHT22;2004;52.452;13.120;2023-06-26T23:36:23;17.30;99.90
3980;DHT22;2004;52.452;13.120;2023-06-26T23:44:18;17.30;99.90
3980;DHT22;2004;52.452;13.120;2023-06-26T23:52:09;17.20;99.90
3980;DHT22;2004;52.452;13.120;2023-06-26T23:59:59;17.10;99.90
